Time;durP1;ratioP1;P1;durP2;ratioP2;P2;SDS_P1;SDS_P2;PMS_P1;PMS_P2;Temp;Humidity;BMP_temperature;BMP_pressure;BME280_temperature;BME280_humidity;BME280_pressure;Samples;Min_cycle;Max_cycle;Signal;HPM_P1;HPM_P2
2022/06/03 00:02:39;;;;;;;7.53;4.63;;;7.30;99.90;;;;;;5116502;27;20227;-77
2022/06/03 00:05:32;;;;;;;5.73;4.83;;;7.30;99.90;;;;;;5121747;28;20288;-77
2022/06/03 00:08:15;;;;;;;6.03;4.57;;;7.20;99.90;;;;;;5123102;27;20289;-77
2022/06/03 00:11:13;;;;;;;8.07;5.13;;;7.10;99.90;;;;;;5120771;27;20243;-77
2022/06/03 00:14:03;;;;;;;7.83;4.77;;;7.10;99.90;;;;;;5123311;27;20297;-77
2022/06/03 00:16:38;;;;;;;8.27;4.90;;;7.10;99.90;;;;;;5104364;28;20304;-78
2022/06/03 00:19:29;;;;;;;7.07;5.40;;;7.00;99.90;;;;;;5114813;27;20217;-77
2022/06/03 00:22:29;;;;;;;8.10;5.37;;;6.90;99.90;;;;;;5123682;27;20232;-78
2022/06/03 00:25:14;;;;;;;7.37;5.40;;;6.90;99.90;;;;;;5114327;27;20245;-78
2022/06/03 00:28:00;;;;;;;9.03;5.10;;;6.90;99.90;;;;;;5115716;28;20238;-78
2022/06/03 00:30:43;;;;;;;6.17;4.47;;;6.90;99.90;;;;;;5104462;27;20224;-78
2022/06/03 00:33:33;;;;;;;11.90;5.33;;;6.80;99.90;;;;;;5106069;27;21011;-78
2022/06/03 00:36:26;;;;;;;8.23;5.70;;;6.80;99.90;;;;;;5127093;27;20747;-78
2022/06/03 00:39:10;;;;;;;8.73;5.70;;;6.80;99.90;;;;;;5128440;27;20609;-78
2022/06/03 00:41:47;;;;;;;5.33;4.03;;;6.80;99.90;;;;;;5126485;27;20300;-78
2022/06/03 00:44:36;;;;;;;7.80;5.17;;;6.70;99.90;;;;;;5110998;27;20233;-78
2022/06/03 00:47:20;;;;;;;6.70;5.07;;;6.70;99.90;;;;;;5110986;27;20648;-78
2022/06/03 00:50:00;;;;;;;6.07;4.87;;;6.60;99.90;;;;;;5108520;27;20224;-78
2022/06/03 00:52:59;;;;;;;6.33;5.17;;;6.60;99.90;;;;;;5108581;27;21134;-77
2022/06/03 00:55:42;;;;;;;5.73;4.20;;;6.60;99.90;;;;;;5115026;27;20252;-78
2022/06/03 00:58:38;;;;;;;9.03;4.67;;;6.50;99.90;;;;;;5109240;27;20221;-78
2022/06/03 01:01:12;;;;;;;6.37;4.77;;;6.50;99.90;;;;;;5104440;27;20224;-77
2022/06/03 01:03:57;;;;;;;6.10;4.70;;;6.50;99.90;;;;;;5112534;27;20222;-77
2022/06/03 01:06:33;;;;;;;5.30;4.50;;;6.40;99.90;;;;;;5105708;27;20249;-78
2022/06/03 01:09:29;;;;;;;6.20;4.60;;;6.40;99.90;;;;;;5114526;27;20227;-77
2022/06/03 01:12:27;;;;;;;4.93;4.20;;;6.30;99.90;;;;;;5125942;27;20226;-77
2022/06/03 01:15:10;;;;;;;6.30;5.17;;;6.20;99.90;;;;;;5099924;27;20218;-77
2022/06/03 01:17:47;;;;;;;6.37;5.27;;;6.20;99.90;;;;;;5104755;27;20220;-77
2022/06/03 01:20:30;;;;;;;6.23;5.17;;;6.20;99.90;;;;;;5105076;27;20217;-76
2022/06/03 01:23:29;;;;;;;7.70;5.60;;;6.20;99.90;;;;;;5100343;27;20307;-76
2022/06/03 01:26:16;;;;;;;7.97;6.33;;;6.10;99.90;;;;;;5119551;27;20582;-77
2022/06/03 01:29:12;;;;;;;10.20;6.23;;;6.10;99.90;;;;;;5116792;27;20217;-76
2022/06/03 01:32:02;;;;;;;9.43;5.70;;;6.10;99.90;;;;;;5120942;27;20302;-76
2022/06/03 01:34:41;;;;;;;6.03;4.43;;;6.10;99.90;;;;;;5104060;27;20223;-77
2022/06/03 01:37:19;;;;;;;7.33;4.53;;;6.10;99.90;;;;;;5115604;27;20224;-76
2022/06/03 01:40:22;;;;;;;6.77;4.90;;;6.00;99.90;;;;;;5122625;27;20224;-75
2022/06/03 01:43:14;;;;;;;8.00;4.83;;;6.00;99.90;;;;;;5098364;27;20220;-76
2022/06/03 01:46:16;;;;;;;7.30;5.97;;;5.90;99.90;;;;;;5119246;27;20741;-76
2022/06/03 01:49:09;;;;;;;7.97;6.07;;;5.90;99.90;;;;;;5118269;27;20251;-76
2022/06/03 01:52:03;;;;;;;6.13;5.13;;;5.90;99.90;;;;;;5097720;27;20221;-76
2022/06/03 01:54:53;;;;;;;7.77;5.43;;;5.90;99.90;;;;;;5113519;27;20730;-76
2022/06/03 01:58:03;;;;;;;7.63;6.23;;;5.90;99.90;;;;;;5116568;27;20314;-79
2022/06/03 02:00:33;;;;;;;10.13;6.87;;;5.80;99.90;;;;;;5103067;27;21108;-78
2022/06/03 02:03:37;;;;;;;11.00;7.07;;;5.80;99.90;;;;;;5122482;27;20744;-78
2022/06/03 02:06:23;;;;;;;8.13;6.23;;;5.80;99.90;;;;;;5123110;27;20236;-78
2022/06/03 02:09:21;;;;;;;7.77;5.97;;;5.80;99.90;;;;;;5120759;27;20702;-78
2022/06/03 02:12:07;;;;;;;9.53;6.80;;;5.80;99.90;;;;;;5117676;27;20222;-76
2022/06/03 02:15:14;;;;;;;7.23;6.53;;;5.90;99.90;;;;;;5115242;27;20213;-75
2022/06/03 02:18:22;;;;;;;10.70;7.20;;;5.80;99.90;;;;;;5121793;27;20438;-76
2022/06/03 02:21:18;;;;;;;9.37;7.97;;;5.80;99.90;;;;;;5112658;27;20308;-77
2022/06/03 02:24:11;;;;;;;12.03;7.10;;;5.80;99.90;;;;;;5119891;27;20242;-77
2022/06/03 02:27:26;;;;;;;12.87;8.00;;;5.80;99.90;;;;;;5108683;27;20226;-77
2022/06/03 02:30:28;;;;;;;10.63;7.00;;;5.80;99.90;;;;;;5121143;27;20234;-77
2022/06/03 02:33:36;;;;;;;7.87;6.67;;;5.70;99.90;;;;;;5117255;27;20213;-77
2022/06/03 02:36:46;;;;;;;8.27;5.23;;;5.70;99.90;;;;;;5117365;27;20229;-77
2022/06/03 02:39:32;;;;;;;7.57;5.97;;;5.70;99.90;;;;;;5103663;27;20310;-77
2022/06/03 02:42:17;;;;;;;10.43;6.47;;;5.60;99.90;;;;;;5118113;27;20224;-77
2022/06/03 02:45:06;;;;;;;9.53;7.00;;;5.60;99.90;;;;;;5101808;27;20604;-77
2022/06/03 02:48:07;;;;;;;10.40;7.70;;;5.60;99.90;;;;;;5113522;27;20340;-76
2022/06/03 02:50:46;;;;;;;9.83;7.20;;;5.50;99.90;;;;;;5112049;27;20311;-77
2022/06/03 02:53:53;;;;;;;11.50;7.17;;;5.50;99.90;;;;;;5098463;27;20217;-77
2022/06/03 02:56:54;;;;;;;8.53;5.60;;;5.50;99.90;;;;;;5124768;27;20221;-77
2022/06/03 02:59:42;;;;;;;9.00;5.73;;;5.50;99.90;;;;;;5112966;27;20235;-77
2022/06/03 03:02:26;;;;;;;7.67;5.37;;;5.50;99.90;;;;;;5095939;27;20561;-77
2022/06/03 03:05:04;;;;;;;6.40;5.20;;;5.40;99.90;;;;;;5096072;27;20228;-77
2022/06/03 03:08:17;;;;;;;8.90;6.27;;;5.40;99.90;;;;;;5116770;27;20294;-77
2022/06/03 03:11:20;;;;;;;5.80;5.20;;;5.30;99.90;;;;;;5039321;27;20879;-77
2022/06/03 03:14:29;;;;;;;10.13;7.40;;;5.30;99.90;;;;;;5117759;27;20863;-77
2022/06/03 03:17:27;;;;;;;8.07;5.83;;;5.30;99.90;;;;;;5120780;27;20707;-77
2022/06/03 03:20:22;;;;;;;7.87;5.40;;;5.20;99.90;;;;;;5116541;27;20257;-77
2022/06/03 03:23:16;;;;;;;8.07;6.83;;;5.20;99.90;;;;;;5109559;27;20214;-77
2022/06/03 03:25:55;;;;;;;7.70;6.20;;;5.20;99.90;;;;;;5116467;27;20243;-77
2022/06/03 03:29:04;;;;;;;9.70;7.03;;;5.20;99.90;;;;;;5112222;27;20733;-77
2022/06/03 03:31:56;;;;;;;10.40;7.30;;;5.20;99.90;;;;;;5100033;28;20228;-77
2022/06/03 03:34:48;;;;;;;9.13;6.40;;;5.20;99.90;;;;;;5115889;27;20668;-76
2022/06/03 03:37:58;;;;;;;7.73;5.70;;;5.20;99.90;;;;;;5111058;27;20225;-76
2022/06/03 03:41:13;;;;;;;7.00;5.40;;;5.20;99.90;;;;;;5119039;27;20217;-77
2022/06/03 03:44:09;;;;;;;7.40;5.03;;;5.30;99.90;;;;;;5093541;28;20223;-77
2022/06/03 03:47:09;;;;;;;8.87;6.50;;;5.30;99.90;;;;;;5109074;27;20325;-76
2022/06/03 03:50:06;;;;;;;6.13;5.53;;;5.30;99.90;;;;;;5120768;27;20755;-76
2022/06/03 03:53:30;;;;;;;6.20;5.47;;;5.30;99.90;;;;;;5118771;27;20230;-77
2022/06/03 03:56:27;;;;;;;8.17;5.57;;;5.40;99.90;;;;;;5105978;28;20749;-77
2022/06/03 03:59:20;;;;;;;5.77;5.13;;;5.40;99.90;;;;;;5117838;27;20303;-76
2022/06/03 04:02:20;;;;;;;6.60;5.00;;;5.50;99.90;;;;;;5089424;27;20222;-77
2022/06/03 04:05:17;;;;;;;7.20;5.83;;;5.60;99.90;;;;;;5116991;27;20329;-77
2022/06/03 04:08:06;;;;;;;9.13;5.90;;;5.60;99.90;;;;;;5097927;27;20217;-77
2022/06/03 04:11:10;;;;;;;8.13;5.53;;;5.70;99.90;;;;;;5125654;27;20226;-76
2022/06/03 04:14:02;;;;;;;8.33;5.17;;;5.70;99.90;;;;;;5126764;27;20300;-77
2022/06/03 04:16:59;;;;;;;7.73;5.30;;;5.80;99.90;;;;;;5109869;27;20230;-77
2022/06/03 04:19:52;;;;;;;6.53;5.53;;;5.90;99.90;;;;;;5103614;27;20958;-77
2022/06/03 04:23:05;;;;;;;10.43;6.53;;;5.90;99.90;;;;;;5104846;27;20712;-77
2022/06/03 04:26:06;;;;;;;8.47;6.00;;;6.00;99.90;;;;;;5124864;27;20244;-77
2022/06/03 04:28:55;;;;;;;7.07;5.63;;;6.00;99.90;;;;;;5119305;27;20745;-76
2022/06/03 04:32:07;;;;;;;14.00;8.37;;;6.10;99.90;;;;;;5107617;27;20224;-77
2022/06/03 04:35:30;;;;;;;13.37;8.30;;;6.20;99.90;;;;;;5101510;27;20318;-76
2022/06/03 04:38:32;;;;;;;10.07;8.07;;;6.20;99.90;;;;;;5096694;27;20290;-77
2022/06/03 04:41:43;;;;;;;12.80;9.73;;;6.30;99.90;;;;;;5122874;27;20222;-78
2022/06/03 04:44:47;;;;;;;14.33;9.43;;;6.40;99.90;;;;;;5100573;27;20237;-78
2022/06/03 04:47:50;;;;;;;15.23;11.33;;;6.50;99.90;;;;;;5108779;27;20226;-78
2022/06/03 04:51:04;;;;;;;15.97;11.10;;;6.60;99.90;;;;;;5110323;27;20227;-78
2022/06/03 04:54:02;;;;;;;18.23;12.50;;;6.60;99.90;;;;;;5040765;28;20278;-78
2022/06/03 04:57:14;;;;;;;18.97;14.03;;;6.80;99.90;;;;;;5067365;27;20225;-78
2022/06/03 05:00:19;;;;;;;21.50;15.67;;;6.90;99.90;;;;;;5112106;27;20207;-78
2022/06/03 05:03:23;;;;;;;22.93;15.73;;;7.00;99.90;;;;;;5099890;27;20234;-78
2022/06/03 05:06:31;;;;;;;22.23;15.43;;;7.10;99.90;;;;;;5096154;27;20245;-78
2022/06/03 05:09:32;;;;;;;23.30;15.97;;;7.30;99.90;;;;;;5105280;27;20214;-77
2022/06/03 05:12:33;;;;;;;17.73;13.93;;;7.40;99.90;;;;;;5069114;27;20223;-78
2022/06/03 05:15:38;;;;;;;20.80;14.27;;;7.50;99.90;;;;;;5098002;27;20249;-78
2022/06/03 05:18:29;;;;;;;22.97;15.30;;;7.60;99.90;;;;;;5120160;27;20318;-78
2022/06/03 05:21:32;;;;;;;23.20;15.63;;;7.70;99.90;;;;;;5104558;27;20312;-83
2022/06/03 05:24:26;;;;;;;22.20;15.03;;;7.80;99.90;;;;;;5116199;27;20219;-81
2022/06/03 05:27:27;;;;;;;20.90;15.10;;;7.90;99.90;;;;;;5094663;27;20230;-82
2022/06/03 05:30:13;;;;;;;21.33;14.70;;;8.00;99.90;;;;;;5120072;27;20580;-82
2022/06/03 05:33:09;;;;;;;23.63;15.33;;;8.20;99.90;;;;;;5125532;27;20222;-82
2022/06/03 05:36:13;;;;;;;24.47;14.93;;;8.20;99.90;;;;;;5126473;27;20443;-81
2022/06/03 05:39:10;;;;;;;18.67;14.13;;;8.30;99.90;;;;;;5118937;27;20242;-81
2022/06/03 05:42:24;;;;;;;20.27;14.20;;;8.40;99.90;;;;;;5116656;27;20226;-81
2022/06/03 05:45:15;;;;;;;17.70;13.27;;;8.50;99.90;;;;;;5107483;27;20226;-81
2022/06/03 05:47:46;;;;;;;17.80;13.10;;;8.70;99.90;;;;;;5115765;27;20223;-82
2022/06/03 05:50:17;;;;;;;22.93;12.97;;;8.70;99.90;;;;;;5131030;27;20705;-81
2022/06/03 05:53:04;;;;;;;20.07;12.43;;;8.80;99.90;;;;;;5125695;27;20232;-81
2022/06/03 05:55:41;;;;;;;14.40;11.77;;;9.00;99.90;;;;;;5121534;27;20231;-81
2022/06/03 05:58:30;;;;;;;18.83;13.07;;;9.00;99.90;;;;;;5099591;27;20243;-82
2022/06/03 06:01:18;;;;;;;21.63;13.80;;;9.20;99.90;;;;;;5111060;27;20217;-81
2022/06/03 06:03:52;;;;;;;16.70;12.60;;;9.20;99.90;;;;;;5107320;27;20220;-82
2022/06/03 06:06:32;;;;;;;14.83;11.90;;;9.30;99.90;;;;;;5135032;27;20271;-83
2022/06/03 06:09:24;;;;;;;18.90;12.53;;;9.40;99.90;;;;;;5118938;27;20221;-82
2022/06/03 06:12:08;;;;;;;14.87;12.20;;;9.50;99.90;;;;;;5109806;27;20308;-82
2022/06/03 06:14:50;;;;;;;16.83;11.90;;;9.60;99.90;;;;;;5123003;27;20221;-81
2022/06/03 06:17:48;;;;;;;14.40;11.10;;;9.70;99.90;;;;;;5107350;27;20216;-81
2022/06/03 06:20:26;;;;;;;18.80;11.33;;;9.80;99.90;;;;;;5100715;27;20229;-82
2022/06/03 06:23:00;;;;;;;18.40;11.33;;;9.90;99.90;;;;;;5107154;27;20215;-82
2022/06/03 06:25:37;;;;;;;16.47;11.40;;;10.00;99.90;;;;;;5113516;27;20508;-81
2022/06/03 06:28:12;;;;;;;19.23;11.03;;;10.20;99.90;;;;;;5123493;27;20302;-81
2022/06/03 06:30:58;;;;;;;13.50;9.77;;;10.30;99.90;;;;;;5109166;27;20218;-81
2022/06/03 06:33:46;;;;;;;14.23;9.10;;;10.60;99.90;;;;;;5110164;27;20215;-81
2022/06/03 06:36:51;;;;;;;13.87;8.83;;;11.00;99.90;;;;;;5103375;27;20254;-81
2022/06/03 06:39:30;;;;;;;15.03;7.77;;;11.40;99.90;;;;;;5120368;27;20872;-79
2022/06/03 06:42:05;;;;;;;12.43;8.97;;;11.90;99.90;;;;;;5126026;27;20243;-82
2022/06/03 06:44:38;;;;;;;10.73;8.33;;;12.30;99.90;;;;;;5106554;27;20221;-82
2022/06/03 06:47:16;;;;;;;13.57;8.33;;;12.60;99.90;;;;;;5124132;27;20682;-82
2022/06/03 06:49:55;;;;;;;12.20;8.07;;;12.70;99.90;;;;;;5115243;27;20227;-82
2022/06/03 06:52:41;;;;;;;16.07;8.23;;;12.90;99.90;;;;;;5125984;27;20224;-82
2022/06/03 06:55:16;;;;;;;10.20;6.70;;;12.90;99.90;;;;;;5122114;27;20322;-82
2022/06/03 06:57:47;;;;;;;8.80;6.83;;;13.00;99.90;;;;;;5126279;27;20247;-83
2022/06/03 07:00:24;;;;;;;12.20;6.93;;;13.20;99.90;;;;;;5128870;27;20241;-83
2022/06/03 07:02:57;;;;;;;9.10;6.00;;;13.50;99.90;;;;;;5109980;27;20313;-84
2022/06/03 07:05:32;;;;;;;9.47;5.00;;;14.00;99.90;;;;;;5105353;27;20242;-82
2022/06/03 07:08:06;;;;;;;7.10;5.23;;;14.70;99.90;;;;;;5123463;27;20220;-82
2022/06/03 07:10:40;;;;;;;7.60;5.40;;;15.40;99.90;;;;;;5111381;27;20222;-81
2022/06/03 07:13:13;;;;;;;5.87;4.73;;;16.30;99.90;;;;;;5120251;27;20223;-82
2022/06/03 07:16:00;;;;;;;5.77;4.27;;;17.20;99.90;;;;;;5127589;27;20934;-81
2022/06/03 07:21:49;;;;;;;6.50;4.83;;;19.00;98.30;;;;;;5095819;27;20301;-81
2022/06/03 07:24:21;;;;;;;6.78;3.90;;;19.90;97.30;;;;;;5113453;27;20709;-82
2022/06/03 07:26:56;;;;;;;5.53;3.83;;;20.80;96.40;;;;;;5127182;27;20248;-82
2022/06/03 07:29:36;;;;;;;7.80;4.68;;;21.50;93.00;;;;;;5119371;27;20228;-81
2022/06/03 07:32:11;;;;;;;5.57;4.10;;;22.00;91.40;;;;;;5117060;27;20221;-81
2022/06/03 07:34:50;;;;;;;6.32;4.05;;;22.30;91.10;;;;;;5118602;27;20228;-81
2022/06/03 07:37:21;;;;;;;6.07;3.80;;;22.40;91.10;;;;;;5123679;27;20705;-81
2022/06/03 07:39:55;;;;;;;6.47;4.20;;;22.70;91.50;;;;;;5101767;28;20229;-81
2022/06/03 07:42:30;;;;;;;8.50;4.63;;;23.00;90.30;;;;;;5122982;27;21032;-81
2022/06/03 07:45:13;;;;;;;5.22;4.35;;;23.40;88.00;;;;;;5126017;27;20220;-81
2022/06/03 07:47:43;;;;;;;7.20;4.43;;;23.80;87.80;;;;;;5120800;27;20216;-80
2022/06/03 07:50:16;;;;;;;8.15;5.10;;;24.30;88.80;;;;;;5133400;27;20217;-81
2022/06/03 07:52:48;;;;;;;5.20;4.03;;;24.70;85.10;;;;;;5127426;27;20237;-81
2022/06/03 07:55:26;;;;;;;7.50;5.13;;;25.20;84.30;;;;;;5124438;27;20740;-82
2022/06/03 07:57:56;;;;;;;5.43;4.00;;;25.50;81.60;;;;;;5128707;27;20216;-81
2022/06/03 08:00:24;;;;;;;7.85;4.63;;;26.00;83.30;;;;;;5127611;27;20757;-82
2022/06/03 08:03:13;;;;;;;3.53;3.03;;;26.30;79.20;;;;;;5124060;27;20214;-83
2022/06/03 08:05:43;;;;;;;4.18;2.78;;;26.50;72.60;;;;;;5121764;27;20232;-82
2022/06/03 08:11:00;;;;;;;4.85;3.28;;;26.80;74.90;;;;;;5127758;27;20224;-81
2022/06/03 08:13:31;;;;;;;4.45;2.92;;;27.00;73.90;;;;;;5104749;27;20290;-82
2022/06/03 08:16:01;;;;;;;3.83;2.70;;;27.20;72.40;;;;;;5105427;27;20600;-82
2022/06/03 08:18:33;;;;;;;4.70;2.70;;;27.40;70.20;;;;;;5122904;27;20815;-82
2022/06/03 08:21:05;;;;;;;5.43;2.53;;;27.70;66.80;;;;;;5108645;27;20245;-82
2022/06/03 08:23:35;;;;;;;2.88;2.30;;;27.90;63.50;;;;;;5101690;27;20548;-82
2022/06/03 08:26:06;;;;;;;5.68;3.00;;;27.90;63.40;;;;;;5125082;27;20274;-82
2022/06/03 08:28:35;;;;;;;6.03;2.80;;;27.90;61.80;;;;;;5103552;27;20225;-80
2022/06/03 08:31:05;;;;;;;3.92;2.00;;;27.90;59.90;;;;;;5123875;27;20343;-83
2022/06/03 08:33:40;;;;;;;3.33;2.50;;;27.90;61.10;;;;;;5104521;27;20335;-82
2022/06/03 08:36:16;;;;;;;4.10;2.78;;;28.00;59.60;;;;;;5121055;27;20229;-81
2022/06/03 08:38:47;;;;;;;5.30;2.55;;;28.20;60.70;;;;;;5122720;27;20295;-82
2022/06/03 08:41:30;;;;;;;3.50;2.17;;;28.30;60.00;;;;;;5121958;27;20351;-81
2022/06/03 08:44:29;;;;;;;2.15;1.75;;;28.50;57.60;;;;;;5105311;27;20229;-82
2022/06/03 08:47:01;;;;;;;4.15;2.08;;;28.60;59.90;;;;;;5122652;27;20221;-81
2022/06/03 08:49:52;;;;;;;2.10;1.27;;;28.90;59.50;;;;;;5121663;27;20221;-81
2022/06/03 08:52:26;;;;;;;1.90;1.10;;;29.10;57.50;;;;;;5121984;27;20217;-81
2022/06/03 08:54:56;;;;;;;1.25;1.00;;;29.40;55.30;;;;;;5124018;27;20300;-81
2022/06/03 08:57:31;;;;;;;2.92;1.25;;;29.60;53.90;;;;;;5124333;27;20336;-81
2022/06/03 09:00:04;;;;;;;1.17;1.02;;;29.80;52.70;;;;;;5125942;27;20278;-82
2022/06/03 09:02:36;;;;;;;1.45;0.70;;;30.00;51.90;;;;;;5127190;27;20237;-81
2022/06/03 09:05:12;;;;;;;1.65;1.00;;;30.20;51.20;;;;;;5120895;27;20617;-82
2022/06/03 09:07:48;;;;;;;1.35;1.00;;;30.30;51.40;;;;;;5123441;27;20225;-80
2022/06/03 09:10:19;;;;;;;1.48;1.33;;;30.60;51.10;;;;;;5126583;27;20224;-81
2022/06/03 09:12:55;;;;;;;2.85;1.45;;;30.80;50.80;;;;;;5109419;27;20748;-81
2022/06/03 09:15:25;;;;;;;3.00;1.38;;;30.90;51.10;;;;;;5124539;27;20224;-80
2022/06/03 09:17:56;;;;;;;1.50;1.35;;;31.00;50.50;;;;;;5111948;27;20788;-80
2022/06/03 09:20:30;;;;;;;2.95;1.52;;;31.00;49.10;;;;;;5108850;27;20236;-81
2022/06/03 09:23:01;;;;;;;4.15;1.48;;;31.00;48.30;;;;;;5123735;27;20264;-81
2022/06/03 09:25:32;;;;;;;2.67;1.52;;;30.90;49.00;;;;;;5124008;27;20697;-81
2022/06/03 09:28:02;;;;;;;3.50;1.52;;;30.70;48.60;;;;;;5120745;27;20312;-82
2022/06/03 09:30:33;;;;;;;1.40;1.20;;;30.70;49.50;;;;;;5125029;27;20253;-81
2022/06/03 09:33:05;;;;;;;2.63;1.35;;;30.60;48.20;;;;;;5124126;27;20220;-81
2022/06/03 09:35:34;;;;;;;2.05;1.48;;;30.60;49.30;;;;;;5132261;27;20562;-83
2022/06/03 09:38:07;;;;;;;2.13;1.20;;;30.70;48.20;;;;;;5116951;27;20301;-82
2022/06/03 09:40:37;;;;;;;2.53;1.40;;;30.70;47.00;;;;;;5109061;27;20286;-82
2022/06/03 09:43:13;;;;;;;3.28;1.40;;;30.60;46.10;;;;;;5121701;27;20774;-80
2022/06/03 09:45:41;;;;;;;2.38;1.25;;;30.40;45.60;;;;;;5127005;27;20337;-82
2022/06/03 09:48:09;;;;;;;2.45;1.73;;;30.20;47.30;;;;;;5126462;27;20225;-81
2022/06/03 09:50:37;;;;;;;1.60;1.02;;;30.10;47.40;;;;;;5122233;27;20482;-81
2022/06/03 09:53:09;;;;;;;1.88;1.25;;;30.20;46.90;;;;;;5121237;27;20713;-82
2022/06/03 09:55:40;;;;;;;1.60;0.98;;;30.20;45.10;;;;;;5125095;27;20221;-81
2022/06/03 09:58:11;;;;;;;1.98;1.10;;;30.10;44.70;;;;;;5113404;27;20445;-82
2022/06/03 10:00:42;;;;;;;1.83;1.00;;;30.10;46.10;;;;;;5127929;27;20425;-82
2022/06/03 10:03:10;;;;;;;2.13;1.17;;;30.20;45.20;;;;;;5123127;27;20802;-81
2022/06/03 10:05:40;;;;;;;1.75;1.05;;;30.20;45.60;;;;;;5118819;27;20309;-82
2022/06/03 10:08:12;;;;;;;1.30;1.10;;;30.40;45.90;;;;;;5123424;27;20939;-81
2022/06/03 10:13:25;;;;;;;2.10;1.02;;;30.60;44.90;;;;;;5112040;27;20213;-80
2022/06/03 10:15:56;;;;;;;1.58;0.80;;;30.70;45.20;;;;;;5122715;27;20248;-80
2022/06/03 10:18:34;;;;;;;1.77;1.10;;;30.80;44.00;;;;;;5116823;27;20217;-82
2022/06/03 10:21:30;;;;;;;2.67;1.30;;;30.70;43.80;;;;;;5117340;27;20712;-82
2022/06/03 10:24:00;;;;;;;1.65;1.13;;;30.60;43.30;;;;;;5123037;27;20561;-81
2022/06/03 10:26:30;;;;;;;1.27;1.02;;;30.50;43.70;;;;;;5108575;27;20225;-82
2022/06/03 10:28:58;;;;;;;2.40;1.13;;;30.40;43.10;;;;;;5128366;27;20300;-81
2022/06/03 10:31:30;;;;;;;2.25;1.10;;;30.30;42.90;;;;;;5121080;27;20222;-81
2022/06/03 10:34:00;;;;;;;7.35;1.52;;;30.20;42.50;;;;;;5129898;27;21037;-81
2022/06/03 10:36:31;;;;;;;3.35;0.98;;;30.10;42.30;;;;;;5125167;27;20229;-81
2022/06/03 10:38:59;;;;;;;1.73;1.17;;;30.20;42.80;;;;;;5129023;27;20595;-81
2022/06/03 10:41:34;;;;;;;2.13;1.10;;;30.30;43.00;;;;;;5120046;27;20362;-83
2022/06/03 10:44:01;;;;;;;2.28;1.20;;;30.30;42.60;;;;;;5132221;27;20689;-86
2022/06/03 10:46:28;;;;;;;2.97;1.08;;;30.50;43.00;;;;;;5113122;27;20937;-86
2022/06/03 10:48:55;;;;;;;0.95;0.80;;;30.70;42.30;;;;;;5130374;27;20806;-83
2022/06/03 11:02:28;;;;;;;1.40;0.77;;;31.60;40.40;;;;;;5129066;27;20847;-83
2022/06/03 11:05:09;;;;;;;1.17;0.60;;;31.80;40.00;;;;;;5135485;27;20221;-82
2022/06/03 11:07:36;;;;;;;3.60;1.20;;;31.90;39.80;;;;;;5105384;27;20225;-82
2022/06/03 11:10:08;;;;;;;1.98;1.20;;;32.00;39.30;;;;;;5111552;27;20233;-82
2022/06/03 11:12:35;;;;;;;1.73;0.90;;;32.10;38.90;;;;;;5110974;27;20233;-82
2022/06/03 11:15:03;;;;;;;1.27;1.00;;;32.30;39.50;;;;;;5105794;27;20227;-83
2022/06/03 11:17:36;;;;;;;1.27;0.90;;;32.40;38.90;;;;;;5128165;27;20265;-83
2022/06/03 11:20:18;;;;;;;1.27;0.90;;;32.50;37.50;;;;;;5130231;27;20241;-83
2022/06/03 11:22:45;;;;;;;1.52;0.80;;;32.50;37.40;;;;;;5137303;27;20240;-83
2022/06/03 11:25:19;;;;;;;1.02;0.70;;;32.40;37.40;;;;;;5126551;27;20432;-83
2022/06/03 11:27:51;;;;;;;1.42;0.93;;;32.30;37.60;;;;;;5105281;27;20224;-83
2022/06/03 11:30:24;;;;;;;1.02;0.77;;;32.30;38.10;;;;;;5126117;27;20234;-83
2022/06/03 11:32:55;;;;;;;1.73;1.00;;;32.40;37.10;;;;;;5121947;27;20222;-86
2022/06/03 11:35:29;;;;;;;1.80;0.90;;;32.30;38.20;;;;;;5102533;27;20312;-83
2022/06/03 11:38:00;;;;;;;2.20;0.90;;;32.40;38.30;;;;;;5126029;27;20586;-83
2022/06/03 11:40:35;;;;;;;1.00;0.80;;;32.50;37.30;;;;;;5111127;28;20213;-83
2022/06/03 11:43:06;;;;;;;0.85;0.60;;;32.60;36.60;;;;;;5117588;27;20278;-82
2022/06/03 11:45:40;;;;;;;0.80;0.77;;;32.50;36.80;;;;;;5120305;28;20305;-84
2022/06/03 11:48:16;;;;;;;1.38;0.80;;;32.50;37.00;;;;;;5100017;28;20691;-84
2022/06/03 11:50:43;;;;;;;1.00;0.70;;;32.40;37.40;;;;;;5110119;27;20224;-84
2022/06/03 11:53:10;;;;;;;1.48;0.70;;;32.40;38.10;;;;;;5097029;27;20240;-84
2022/06/03 11:55:39;;;;;;;1.40;0.93;;;32.50;37.50;;;;;;5126269;28;20410;-84
2022/06/03 11:58:12;;;;;;;1.35;0.90;;;32.70;36.10;;;;;;5111946;28;20221;-84
2022/06/03 12:00:44;;;;;;;1.08;0.80;;;32.70;35.60;;;;;;5111248;27;20224;-84
2022/06/03 12:03:26;;;;;;;1.00;0.77;;;32.70;35.30;;;;;;5105383;27;20223;-84
2022/06/03 12:06:00;;;;;;;2.00;0.90;;;32.80;36.60;;;;;;5108908;28;20602;-84
2022/06/03 12:08:34;;;;;;;1.20;0.60;;;32.80;36.10;;;;;;5110560;27;20286;-85
2022/06/03 12:13:14;;;;;;;1.10;0.80;;;32.90;35.40;;;;;;5127963;27;20224;-85
2022/06/03 12:14:19;;;;;;;2.53;0.80;;;32.90;34.40;;;;;;5101900;28;20209;-84
2022/06/03 12:16:55;;;;;;;0.77;0.70;;;33.10;35.80;;;;;;5119976;27;20262;-85
2022/06/03 12:19:39;;;;;;;1.45;0.80;;;33.00;33.60;;;;;;5118658;28;20293;-84
2022/06/03 12:22:34;;;;;;;1.00;0.60;;;32.90;33.00;;;;;;5116454;27;20228;-84
2022/06/03 12:25:01;;;;;;;1.50;0.85;;;32.80;34.80;;;;;;5115506;27;20214;-84
2022/06/03 12:27:35;;;;;;;1.08;0.70;;;32.60;34.30;;;;;;5102649;28;20226;-85
2022/06/03 12:30:22;;;;;;;2.80;0.90;;;32.40;33.30;;;;;;5108009;27;20213;-84
2022/06/03 12:32:54;;;;;;;1.13;0.82;;;32.10;33.30;;;;;;5108168;27;20232;-85
2022/06/03 12:36:04;;;;;;;1.23;0.70;;;31.80;33.70;;;;;;5123397;27;20244;-85
2022/06/03 12:38:59;;;;;;;0.63;0.63;;;31.50;34.60;;;;;;5109661;27;20225;-84
2022/06/03 12:42:10;;;;;;;1.23;0.80;;;31.30;34.80;;;;;;5115593;27;20255;-86
2022/06/03 12:44:52;;;;;;;1.88;0.80;;;31.20;36.00;;;;;;5057803;28;20685;-85
2022/06/03 12:47:43;;;;;;;1.05;0.70;;;31.10;35.80;;;;;;5105560;27;20263;-84
2022/06/03 12:50:27;;;;;;;1.45;0.95;;;31.20;35.00;;;;;;5122659;27;20212;-84
2022/06/03 12:52:59;;;;;;;2.45;0.60;;;31.40;35.10;;;;;;5122636;27;20709;-84
2022/06/03 12:55:30;;;;;;;1.05;0.85;;;31.50;34.50;;;;;;5122600;27;20732;-85
2022/06/03 12:58:20;;;;;;;3.17;0.90;;;31.50;33.90;;;;;;5117812;27;20220;-84
2022/06/03 13:00:54;;;;;;;1.30;1.05;;;31.40;33.90;;;;;;5100708;27;20439;-84
2022/06/03 13:03:39;;;;;;;1.45;0.77;;;31.30;34.00;;;;;;5126702;27;20225;-84
2022/06/03 13:06:08;;;;;;;1.08;0.70;;;31.30;35.20;;;;;;5098849;27;20222;-85
2022/06/03 13:11:44;;;;;;;1.75;0.80;;;31.20;35.50;;;;;;5127377;27;20225;-84
2022/06/03 13:14:29;;;;;;;2.20;1.02;;;31.10;34.40;;;;;;5104319;27;20221;-84
2022/06/03 13:16:57;;;;;;;2.85;0.90;;;30.90;36.30;;;;;;5097229;27;20227;-84
2022/06/03 13:19:56;;;;;;;0.93;0.70;;;30.80;35.80;;;;;;5109932;27;20292;-84
2022/06/03 13:22:58;;;;;;;1.98;0.70;;;30.60;36.10;;;;;;5123938;27;20236;-84
2022/06/03 13:25:38;;;;;;;1.85;0.82;;;30.40;35.70;;;;;;5097395;27;20270;-84
2022/06/03 13:28:32;;;;;;;0.90;0.63;;;30.20;35.20;;;;;;5099964;27;20318;-84
2022/06/03 13:31:20;;;;;;;1.05;0.70;;;30.10;35.60;;;;;;5099400;27;20221;-84
2022/06/03 13:34:23;;;;;;;4.70;0.80;;;30.00;35.50;;;;;;5101531;27;20233;-85
2022/06/03 13:37:30;;;;;;;1.85;0.90;;;30.00;35.10;;;;;;5118187;27;20234;-85
2022/06/03 13:40:19;;;;;;;1.10;0.70;;;29.90;35.10;;;;;;5116514;27;20217;-84
2022/06/03 13:42:57;;;;;;;1.15;0.80;;;29.80;34.80;;;;;;5120619;27;20256;-84
2022/06/03 13:45:27;;;;;;;1.20;0.73;;;29.80;36.60;;;;;;5120473;27;20331;-84
2022/06/03 13:48:00;;;;;;;1.50;0.80;;;29.80;37.20;;;;;;5093099;27;20635;-85
2022/06/03 13:50:35;;;;;;;0.85;0.82;;;29.70;37.30;;;;;;5117955;27;20694;-85
2022/06/03 13:53:04;;;;;;;2.60;0.90;;;29.70;37.40;;;;;;5097959;27;20312;-84
2022/06/03 13:55:35;;;;;;;0.95;0.80;;;29.70;37.10;;;;;;5118175;27;20828;-84
2022/06/03 13:58:13;;;;;;;0.85;0.70;;;29.70;36.60;;;;;;5119879;27;20217;-85
2022/06/03 14:00:54;;;;;;;1.63;0.90;;;29.60;37.20;;;;;;5102109;27;20217;-84
2022/06/03 14:03:24;;;;;;;0.90;0.75;;;29.50;37.10;;;;;;5101992;27;20216;-84
2022/06/03 14:05:59;;;;;;;1.38;0.88;;;29.40;37.70;;;;;;5122074;27;20259;-84
2022/06/03 14:08:33;;;;;;;1.98;0.93;;;29.50;38.20;;;;;;5123202;27;20749;-84
2022/06/03 14:11:06;;;;;;;1.25;0.90;;;29.40;37.30;;;;;;5120892;27;20253;-83
2022/06/03 14:13:42;;;;;;;0.75;0.60;;;29.40;37.40;;;;;;5105781;27;20222;-83
2022/06/03 14:16:12;;;;;;;1.45;0.85;;;29.40;37.10;;;;;;5108828;27;20282;-84
2022/06/03 14:18:49;;;;;;;0.88;0.70;;;29.30;36.80;;;;;;5104549;27;21221;-80
2022/06/03 14:21:24;;;;;;;2.85;0.90;;;29.20;38.00;;;;;;5124862;27;20301;-81
2022/06/03 14:23:52;;;;;;;0.70;0.60;;;29.30;38.30;;;;;;5108892;27;20874;-80
2022/06/03 14:26:23;;;;;;;1.08;0.80;;;29.20;38.70;;;;;;5122128;27;20237;-83
2022/06/03 14:28:56;;;;;;;1.17;0.88;;;29.30;38.40;;;;;;5129535;27;20251;-83
2022/06/03 14:31:30;;;;;;;1.45;1.10;;;29.40;37.30;;;;;;5123187;27;20879;-82
2022/06/03 14:34:04;;;;;;;1.02;0.80;;;29.30;36.70;;;;;;5106502;27;20239;-79
2022/06/03 14:36:34;;;;;;;1.60;0.80;;;29.20;36.60;;;;;;5119934;27;20245;-79